Alamogordo, NM

8:52 AM MDT on August 23, 2017 (GMT -0600)
Alamogordo-White Sands Regional

Weather History for KALM - April, 2014

Change the Weather History Date:

Tuesday, April 29, 2014

  Actual Average Record
Temperature  
Mean Temperature 56 °F -  
Max Temperature 66 °F 80 °F 91 °F (1961)
Min Temperature 46 °F 48 °F 35 °F (1991)
Degree Days  
Heating Degree Days 9    
Growing Degree Days 6 (Base 50)    
Moisture  
Dew Point 3 °F    
Average Humidity 12    
Maximum Humidity 18    
Minimum Humidity 7    
Precipitation  
Precipitation 0.00 in - - ()
Sea Level Pressure  
Sea Level Pressure 30.06 in    
Wind  
Wind Speed 18 mph (North)    
Max Wind Speed 33 mph    
Max Gust Speed 39 mph    
Visibility 10 miles    
Events Rain    
Averages and records for this station are not official NWS values.
T = Trace of Precipitation, MM = Missing Value Source: NWS Daily Summary

Daily Weather History Graph

Daily Weather History Graph

Search for Another Location

Airport or City:

Trip Planner

Search our weather history database for the weather conditions in past years. The results will help you decide how hot, cold, wet, or windy it might be!

Date:

Astronomy

Apr. 29, 2014 Rise Set
Actual Time 6:18 AM MDT 7:44 PM MDT
Civil Twilight 5:52 AM MDT 8:10 PM MDT
Nautical Twilight 5:21 AM MDT 8:41 PM MDT
Astronomical Twilight 4:48 AM MDT 9:14 PM MDT
Moon 6:38 AM MDT (4/29) 8:26 PM MDT (4/29)
Length of Visible Light 14h 18m
Length of Day
13h 25m
New Moon, 0% of the Moon is Illuminated
Apr 29
New Moon
May 6
First Quarter
May 14
Full
May 21
Last Quarter
May 28
New

Hourly Weather History & Observations

Time (MDT) Temp. Windchill Dew Point Humidity Pressure Visibility Wind Dir Wind Speed Gust Speed Precip Events Conditions
12:15 AM 60.8 °F - 8.6 °F 13% 29.96 in 10.0 mi North 13.8 mph 18.4 mph N/A   Clear
12:35 AM 60.8 °F - 8.6 °F 13% 29.96 in 10.0 mi NNE 11.5 mph - N/A   Clear
12:55 AM 59.0 °F - 8.6 °F 14% 29.96 in 10.0 mi North 16.1 mph 20.7 mph N/A   Clear
1:15 AM 57.2 °F - 6.8 °F 13% 29.97 in 10.0 mi North 18.4 mph 25.3 mph N/A   Clear
1:35 AM 57.2 °F - 5.0 °F 12% 29.99 in 10.0 mi North 18.4 mph - N/A   Clear
1:55 AM 57.2 °F - 3.2 °F 11% 29.99 in 10.0 mi North 21.9 mph 31.1 mph N/A   Clear
2:15 AM 55.4 °F - 1.4 °F 11% 30.00 in 10.0 mi North 16.1 mph 26.5 mph N/A   Clear
2:35 AM 55.4 °F - 1.4 °F 11% 30.01 in 10.0 mi North 21.9 mph 32.2 mph N/A   Clear
2:55 AM 55.4 °F - 1.4 °F 11% 30.02 in 10.0 mi North 25.3 mph 33.4 mph N/A   Clear
3:15 AM 53.6 °F - 1.4 °F 12% 30.02 in 10.0 mi North 27.6 mph 34.5 mph N/A   Clear
3:35 AM 53.6 °F - 1.4 °F 12% 30.01 in 10.0 mi North 29.9 mph 38.0 mph N/A   Clear
3:55 AM 53.6 °F - 1.4 °F 12% 30.02 in 10.0 mi North 25.3 mph 36.8 mph N/A   Clear
4:15 AM 53.6 °F - 1.4 °F 12% 30.03 in 10.0 mi North 24.2 mph 35.7 mph N/A   Clear
4:35 AM 51.8 °F - 1.4 °F 13% 30.04 in 10.0 mi North 21.9 mph 32.2 mph N/A   Clear
4:55 AM 50.0 °F - 1.4 °F 14% 30.04 in 10.0 mi North 25.3 mph 31.1 mph N/A   Clear
5:15 AM 50.0 °F - -0.4 °F 13% 30.05 in 10.0 mi North 24.2 mph 35.7 mph N/A   Clear
5:35 AM 50.0 °F - 1.4 °F 14% 30.06 in 10.0 mi North 19.6 mph 28.8 mph N/A   Clear
5:55 AM 50.0 °F - 1.4 °F 14% 30.08 in 10.0 mi NNE 19.6 mph 27.6 mph N/A   Clear
6:15 AM 48.2 °F - 1.4 °F 15% 30.08 in 10.0 mi North 17.3 mph 26.5 mph N/A   Clear
6:35 AM 48.2 °F - 1.4 °F 15% 30.09 in 10.0 mi North 17.3 mph 24.2 mph N/A   Clear
6:55 AM 50.0 °F - 1.4 °F 14% 30.10 in 10.0 mi North 20.7 mph 29.9 mph N/A   Clear
7:15 AM 50.0 °F - 1.4 °F 14% 30.10 in 10.0 mi North 19.6 mph 27.6 mph N/A   Clear
7:35 AM 50.0 °F - 3.2 °F 15% 30.10 in 10.0 mi North 25.3 mph 31.1 mph N/A   Clear
7:55 AM 50.0 °F - 5.0 °F 16% 30.10 in 10.0 mi North 26.5 mph 36.8 mph N/A   Clear
8:15 AM 50.0 °F - 5.0 °F 16% 30.10 in 10.0 mi North 27.6 mph 35.7 mph N/A   Clear
8:35 AM 50.0 °F - 6.8 °F 17% 30.11 in 10.0 mi North 33.4 mph 39.1 mph N/A   Clear
8:55 AM 50.0 °F - 6.8 °F 17% 30.11 in 10.0 mi North 23.0 mph 35.7 mph N/A   Clear
9:15 AM 51.8 °F - 6.8 °F 16% 30.11 in 10.0 mi NNW 21.9 mph 32.2 mph N/A   Clear
9:35 AM 53.6 °F - 6.8 °F 15% 30.11 in 10.0 mi NNW 21.9 mph 29.9 mph N/A   Clear
9:55 AM 55.4 °F - 6.8 °F 14% 30.11 in 10.0 mi North 23.0 mph 33.4 mph N/A   Clear
10:15 AM 55.4 °F - 6.8 °F 14% 30.10 in 10.0 mi NNW 21.9 mph 28.8 mph N/A   Clear
10:35 AM 57.2 °F - 6.8 °F 13% 30.11 in 10.0 mi North 21.9 mph 31.1 mph N/A   Clear
10:55 AM 57.2 °F - 5.0 °F 12% 30.10 in 10.0 mi NNW 21.9 mph 27.6 mph N/A   Clear
11:15 AM 59.0 °F - 5.0 °F 12% 30.11 in 10.0 mi NNW 18.4 mph 25.3 mph N/A   Clear
11:35 AM 59.0 °F - 5.0 °F 12% 30.10 in 10.0 mi NNE 13.8 mph 25.3 mph N/A   Clear
11:55 AM 59.0 °F - 1.4 °F 10% 30.10 in 10.0 mi NNW 17.3 mph 24.2 mph N/A   Clear
12:15 PM 60.8 °F - 1.4 °F 9% 30.10 in 10.0 mi North 12.7 mph 25.3 mph N/A   Clear
12:35 PM 62.6 °F - -0.4 °F 8% 30.09 in 10.0 mi NNW 15.0 mph 26.5 mph N/A   Clear
12:55 PM 62.6 °F - 1.4 °F 9% 30.08 in 10.0 mi NNW 18.4 mph 26.5 mph N/A   Clear
1:15 PM 62.6 °F - 1.4 °F 9% 30.08 in 10.0 mi NNW 15.0 mph 27.6 mph N/A   Clear
1:35 PM 62.6 °F - -0.4 °F 8% 30.08 in 10.0 mi North 13.8 mph 23.0 mph N/A   Clear
1:55 PM 64.4 °F - -0.4 °F 7% 30.07 in 10.0 mi NNW 16.1 mph 20.7 mph N/A   Clear
2:15 PM 62.6 °F - 1.4 °F 9% 30.07 in 10.0 mi NW 17.3 mph 25.3 mph N/A   Clear
2:35 PM 62.6 °F - 1.4 °F 9% 30.06 in 10.0 mi NW 18.4 mph 24.2 mph N/A   Clear
2:55 PM 64.4 °F - 1.4 °F 8% 30.06 in 10.0 mi NW 17.3 mph 23.0 mph N/A   Clear
3:15 PM 62.6 °F - 1.4 °F 9% 30.05 in 10.0 mi NW 19.6 mph 26.5 mph N/A   Clear
3:35 PM 64.4 °F - 1.4 °F 8% 30.04 in 10.0 mi NNW 10.4 mph 20.7 mph N/A   Clear
4:35 PM 66.2 °F - 1.4 °F 8% 30.03 in 10.0 mi NNW 13.8 mph 26.5 mph N/A   Clear
4:55 PM 66.2 °F - 1.4 °F 8% 30.03 in 10.0 mi NNW 11.5 mph 27.6 mph N/A   Clear
5:15 PM 64.4 °F - 1.4 °F 8% 30.03 in 10.0 mi WNW 13.8 mph 20.7 mph N/A   Clear
5:35 PM 64.4 °F - 1.4 °F 8% 30.03 in 10.0 mi North 15.0 mph 24.2 mph N/A   Clear
5:55 PM 64.4 °F - 1.4 °F 8% 30.03 in 10.0 mi NNW 15.0 mph 18.4 mph N/A   Clear
6:15 PM 64.4 °F - 3.2 °F 9% 30.02 in 10.0 mi NW 12.7 mph 18.4 mph N/A   Clear
6:35 PM 64.4 °F - 1.4 °F 8% 30.02 in 10.0 mi North 13.8 mph 20.7 mph N/A   Clear
6:55 PM 64.4 °F - 1.4 °F 8% 30.01 in 10.0 mi North 11.5 mph 18.4 mph N/A   Clear
7:15 PM 62.6 °F - 1.4 °F 9% 30.02 in 10.0 mi North 10.4 mph - N/A   Clear
7:35 PM 62.6 °F - 1.4 °F 9% 30.03 in 10.0 mi North 6.9 mph - N/A   Clear
8:35 PM 53.6 °F - 1.4 °F 12% 30.05 in 10.0 mi WNW 6.9 mph - N/A   Clear
8:55 PM 51.8 °F - 1.4 °F 13% 30.06 in 10.0 mi West 8.1 mph - N/A Rain Light Rain
9:15 PM 50.0 °F - 1.4 °F 14% 30.06 in 10.0 mi WNW 5.8 mph - N/A Rain Light Rain
9:35 PM 53.6 °F - -0.4 °F 11% 30.07 in 10.0 mi ENE 6.9 mph - N/A   Clear
9:55 PM 53.6 °F - -0.4 °F 11% 30.08 in 10.0 mi South 5.8 mph - N/A   Clear
10:15 PM 48.2 °F - -0.4 °F 13% 30.09 in 10.0 mi South 9.2 mph - N/A   Clear
10:35 PM 48.2 °F - -0.4 °F 13% 30.09 in 10.0 mi South 9.2 mph - N/A   Clear
10:55 PM 46.4 °F 45.2 °F -0.4 °F 14% 30.09 in 10.0 mi SSE 3.5 mph - N/A   Clear
11:15 PM 48.2 °F - 1.4 °F 15% 30.09 in 10.0 mi NE 4.6 mph - N/A   Clear
11:35 PM 50.0 °F - 3.2 °F 15% 30.10 in 10.0 mi East 9.2 mph - N/A   Clear
11:55 PM 46.4 °F 45.2 °F 5.0 °F 18% 30.10 in 10.0 mi SSE 3.5 mph - N/A   Clear